Time;durP1;ratioP1;P1;durP2;ratioP2;P2;SDS_P1;SDS_P2;PMS_P1;PMS_P2;Temp;Humidity;BMP_temperature;BMP_pressure;BME280_temperature;BME280_humidity;BME280_pressure;Samples;Min_cycle;Max_cycle;Signal;HPM_P1;HPM_P2
2023/11/05 00:01:16;;;;;;;1.00;0.70;;;19.30;72.80;;;;;;5054685;28;20464;-89
2023/11/05 00:03:44;;;;;;;1.50;0.70;;;19.30;72.80;;;;;;5054644;28;20528;-89
2023/11/05 00:06:11;;;;;;;1.20;0.80;;;19.30;72.80;;;;;;5054568;28;20542;-89
2023/11/05 00:08:38;;;;;;;1.00;0.70;;;19.30;72.80;;;;;;5054479;28;20452;-89
2023/11/05 00:11:05;;;;;;;1.07;0.77;;;19.30;72.80;;;;;;5054254;28;20492;-88
2023/11/05 00:13:32;;;;;;;1.40;0.87;;;19.30;72.80;;;;;;5054266;28;20434;-89
2023/11/05 00:15:59;;;;;;;1.10;0.80;;;19.20;72.70;;;;;;5054378;28;20531;-89
2023/11/05 00:18:26;;;;;;;1.50;0.80;;;19.30;72.80;;;;;;5054309;28;20440;-89
2023/11/05 00:20:54;;;;;;;1.30;0.70;;;19.30;72.80;;;;;;5054214;28;20438;-89
2023/11/05 00:23:21;;;;;;;1.00;0.73;;;19.30;73.70;;;;;;5054277;28;20885;-89
2023/11/05 00:25:48;;;;;;;1.63;0.70;;;19.30;72.80;;;;;;5054307;28;20439;-88
2023/11/05 00:28:15;;;;;;;1.10;0.70;;;19.30;72.80;;;;;;5054189;28;20919;-89
2023/11/05 00:30:42;;;;;;;1.37;0.80;;;19.30;72.80;;;;;;5053988;28;20492;-89
2023/11/05 00:33:09;;;;;;;1.43;0.73;;;19.30;72.80;;;;;;5053823;28;20441;-89
2023/11/05 00:35:35;;;;;;;1.00;0.70;;;19.30;72.80;;;;;;5054037;28;20448;-89
2023/11/05 00:38:04;;;;;;;1.07;0.77;;;19.30;72.80;;;;;;5053928;28;20432;-89
2023/11/05 00:40:31;;;;;;;1.03;0.73;;;19.30;72.80;;;;;;5053937;28;20474;-89
2023/11/05 00:42:58;;;;;;;0.97;0.70;;;19.30;72.80;;;;;;5053879;28;20942;-89
2023/11/05 00:45:25;;;;;;;1.50;0.80;;;19.30;72.80;;;;;;5053789;28;20441;-89
2023/11/05 00:47:51;;;;;;;1.30;0.80;;;19.30;72.80;;;;;;5053854;28;20540;-89
2023/11/05 00:50:18;;;;;;;1.10;0.70;;;19.30;72.80;;;;;;5053911;28;20472;-89
2023/11/05 00:52:45;;;;;;;0.90;0.60;;;19.30;72.80;;;;;;5053670;28;20519;-89
2023/11/05 00:55:14;;;;;;;1.03;0.80;;;19.30;72.80;;;;;;5053478;28;20532;-89
2023/11/05 00:57:41;;;;;;;1.30;0.77;;;19.30;72.80;;;;;;5053816;28;20896;-89
2023/11/05 01:00:10;;;;;;;1.30;0.80;;;19.30;73.20;;;;;;5053568;28;20796;-89
2023/11/05 01:02:37;;;;;;;1.10;0.80;;;19.30;72.80;;;;;;5053443;28;20940;-89
2023/11/05 01:05:04;;;;;;;1.57;0.70;;;19.30;72.80;;;;;;5053601;28;20919;-89
2023/11/05 01:07:31;;;;;;;2.00;0.80;;;19.30;72.80;;;;;;5053602;28;20444;-89
2023/11/05 01:09:58;;;;;;;1.20;0.77;;;19.20;72.90;;;;;;5053677;28;20480;-89
2023/11/05 01:12:26;;;;;;;0.97;0.63;;;19.30;72.80;;;;;;5052863;28;20583;-89
2023/11/05 01:14:54;;;;;;;1.27;1.10;;;19.30;72.80;;;;;;5053229;28;20437;-89
2023/11/05 01:17:21;;;;;;;1.10;0.80;;;19.20;72.70;;;;;;5053270;28;20439;-89
2023/11/05 01:19:48;;;;;;;1.40;1.00;;;19.30;72.80;;;;;;5053399;28;20440;-89
2023/11/05 01:22:15;;;;;;;1.67;0.87;;;19.30;72.80;;;;;;5053163;28;20543;-89
2023/11/05 01:24:42;;;;;;;1.40;0.80;;;19.30;72.80;;;;;;5053089;28;20527;-89
2023/11/05 01:27:09;;;;;;;1.30;0.70;;;19.30;72.80;;;;;;5053205;28;20519;-89
2023/11/05 01:29:37;;;;;;;1.00;0.70;;;19.20;72.70;;;;;;5053096;28;20451;-89
2023/11/05 01:32:05;;;;;;;1.13;0.80;;;19.20;72.70;;;;;;5052899;28;20492;-89
2023/11/05 01:34:32;;;;;;;1.93;0.80;;;19.30;72.80;;;;;;5053043;28;20443;-89
2023/11/05 01:36:59;;;;;;;1.10;0.80;;;19.20;72.70;;;;;;5053135;28;20493;-89
2023/11/05 01:39:26;;;;;;;1.60;0.80;;;19.20;72.70;;;;;;5053027;28;20519;-89
2023/11/05 01:41:53;;;;;;;1.30;0.73;;;19.30;72.80;;;;;;5052766;28;20553;-89
2023/11/05 01:44:20;;;;;;;1.00;0.70;;;19.30;72.80;;;;;;5053026;28;20435;-89
2023/11/05 01:46:48;;;;;;;1.43;0.70;;;19.20;72.70;;;;;;5052987;28;20435;-89
2023/11/05 01:49:26;;;;;;;1.47;0.70;;;19.20;72.70;;;;;;5053086;28;20440;-89
2023/11/05 01:51:54;;;;;;;1.03;0.70;;;19.30;72.80;;;;;;5052363;28;20546;-89
2023/11/05 01:54:21;;;;;;;1.43;0.90;;;19.20;72.70;;;;;;5052846;28;20481;-89
2023/11/05 01:56:48;;;;;;;1.23;0.80;;;19.20;72.70;;;;;;5052939;28;20500;-89
2023/11/05 01:59:15;;;;;;;1.40;0.80;;;19.20;72.70;;;;;;5052885;28;20994;-88
2023/11/05 02:01:43;;;;;;;1.13;0.70;;;19.20;72.70;;;;;;5052778;28;20527;-89
2023/11/05 02:04:11;;;;;;;1.40;0.90;;;19.20;72.70;;;;;;5052772;28;20445;-89
2023/11/05 02:06:39;;;;;;;1.10;0.70;;;19.30;73.70;;;;;;5055696;28;20530;-89
2023/11/05 02:09:06;;;;;;;1.00;0.70;;;19.20;72.70;;;;;;5056667;28;20924;-89
2023/11/05 02:11:33;;;;;;;1.00;0.70;;;19.20;72.70;;;;;;5056299;28;20489;-89
2023/11/05 02:14:00;;;;;;;1.03;0.70;;;19.20;72.80;;;;;;5056857;28;20527;-89
2023/11/05 02:16:31;;;;;;;1.43;0.70;;;19.20;72.70;;;;;;5056613;28;20486;-89
2023/11/05 02:18:58;;;;;;;1.57;0.70;;;19.20;72.70;;;;;;5056685;28;20442;-89
2023/11/05 02:21:31;;;;;;;1.20;0.90;;;19.20;72.80;;;;;;5056817;28;20809;-89
2023/11/05 02:23:59;;;;;;;1.20;0.80;;;19.30;72.90;;;;;;5056526;28;20436;-89
2023/11/05 02:26:26;;;;;;;1.60;0.80;;;19.20;72.80;;;;;;5056379;28;20978;-89
2023/11/05 02:28:53;;;;;;;1.10;0.90;;;19.20;72.80;;;;;;5056417;28;20532;-89
2023/11/05 02:31:20;;;;;;;1.73;0.70;;;19.20;72.80;;;;;;5056188;28;20494;-89
2023/11/05 02:33:47;;;;;;;1.20;0.60;;;19.20;72.80;;;;;;5056238;28;20535;-89
2023/11/05 02:36:15;;;;;;;1.20;0.80;;;19.20;72.80;;;;;;5056249;28;20536;-89
2023/11/05 02:38:42;;;;;;;1.20;0.70;;;19.20;72.90;;;;;;5056231;28;20445;-89
2023/11/05 02:41:11;;;;;;;1.00;0.60;;;19.20;72.90;;;;;;5056083;28;20546;-89
2023/11/05 02:43:38;;;;;;;1.10;0.70;;;19.20;72.90;;;;;;5056028;28;20439;-89
2023/11/05 02:46:06;;;;;;;1.60;0.77;;;19.20;72.90;;;;;;5056134;28;20519;-89
2023/11/05 02:48:33;;;;;;;1.00;0.67;;;19.20;72.90;;;;;;5056192;28;20436;-89
2023/11/05 02:51:00;;;;;;;1.00;0.70;;;19.20;72.90;;;;;;5055807;28;20994;-87
2023/11/05 02:53:27;;;;;;;1.30;0.77;;;19.20;72.90;;;;;;5055865;28;20543;-87
2023/11/05 02:55:54;;;;;;;1.00;0.70;;;19.20;72.90;;;;;;5055807;28;20532;-87
2023/11/05 02:58:22;;;;;;;1.00;0.70;;;19.20;72.90;;;;;;5055978;28;20519;-87
2023/11/05 03:00:49;;;;;;;1.20;0.90;;;19.20;73.70;;;;;;5055888;28;20476;-88
2023/11/05 03:03:16;;;;;;;1.10;0.80;;;19.20;72.90;;;;;;5055752;28;20861;-88
2023/11/05 03:05:44;;;;;;;1.50;1.00;;;19.20;72.90;;;;;;5055753;28;20521;-87
2023/11/05 03:08:12;;;;;;;1.73;0.80;;;19.20;72.90;;;;;;5055770;28;20527;-87
2023/11/05 03:10:39;;;;;;;1.20;0.90;;;19.20;72.90;;;;;;5055514;28;20559;-87
2023/11/05 03:13:06;;;;;;;1.47;0.60;;;19.20;73.00;;;;;;5055389;28;20480;-87
2023/11/05 03:15:33;;;;;;;1.10;0.73;;;19.20;73.00;;;;;;5055695;28;20440;-87
2023/11/05 03:18:00;;;;;;;1.00;0.63;;;19.20;73.00;;;;;;5054381;28;20546;-88
2023/11/05 03:20:26;;;;;;;1.63;0.97;;;19.20;73.00;;;;;;5055336;28;20445;-87
2023/11/05 03:22:53;;;;;;;1.00;0.80;;;19.20;73.00;;;;;;5055381;28;20788;-87
2023/11/05 03:25:20;;;;;;;0.97;0.60;;;19.20;73.00;;;;;;5055405;28;20525;-87
2023/11/05 03:27:47;;;;;;;1.00;0.70;;;19.30;73.10;;;;;;5055367;28;20447;-87
2023/11/05 03:30:15;;;;;;;1.40;1.07;;;19.20;73.10;;;;;;5055294;28;20948;-88
2023/11/05 03:32:43;;;;;;;1.20;0.70;;;19.20;73.10;;;;;;5054960;28;20579;-87
2023/11/05 03:35:10;;;;;;;1.60;0.80;;;19.20;73.10;;;;;;5055197;28;20440;-87
2023/11/05 03:37:37;;;;;;;1.10;0.80;;;19.20;73.00;;;;;;5055156;28;20443;-87
2023/11/05 03:40:05;;;;;;;1.13;0.70;;;19.20;73.00;;;;;;5055061;28;20444;-87
2023/11/05 03:42:32;;;;;;;1.00;0.70;;;19.20;73.10;;;;;;5055109;28;20860;-87
2023/11/05 03:44:59;;;;;;;1.03;0.70;;;19.20;73.10;;;;;;5054976;28;21009;-87
2023/11/05 03:47:25;;;;;;;1.20;0.67;;;19.20;73.00;;;;;;5055035;28;20919;-87
2023/11/05 03:49:54;;;;;;;1.20;0.70;;;19.20;73.10;;;;;;5055088;28;20451;-87
2023/11/05 03:52:21;;;;;;;1.10;0.70;;;19.20;73.10;;;;;;5054846;28;20488;-88
2023/11/05 03:54:48;;;;;;;1.00;0.70;;;19.20;73.10;;;;;;5054939;28;20436;-87
2023/11/05 03:57:14;;;;;;;2.13;0.80;;;19.20;73.10;;;;;;5054766;28;20539;-87
2023/11/05 03:59:41;;;;;;;1.10;0.90;;;19.20;73.10;;;;;;5054796;28;20455;-87
2023/11/05 04:02:08;;;;;;;1.20;0.70;;;19.20;73.10;;;;;;5054611;28;20443;-87
2023/11/05 04:04:35;;;;;;;1.10;0.77;;;19.20;73.10;;;;;;5054689;28;20523;-87
2023/11/05 04:07:06;;;;;;;1.20;0.80;;;19.20;73.10;;;;;;5054559;28;20464;-88
2023/11/05 04:09:33;;;;;;;1.00;0.60;;;19.20;73.10;;;;;;5054515;28;20450;-87
2023/11/05 04:12:00;;;;;;;1.00;0.70;;;19.20;73.20;;;;;;5054022;28;20589;-87
2023/11/05 04:14:27;;;;;;;1.20;0.80;;;19.20;73.20;;;;;;5054402;28;20540;-88
2023/11/05 04:16:54;;;;;;;1.20;0.70;;;19.20;73.10;;;;;;5054438;28;20476;-87
2023/11/05 04:19:21;;;;;;;1.80;0.87;;;19.20;73.20;;;;;;5054401;28;20440;-88
2023/11/05 04:21:48;;;;;;;1.00;0.80;;;19.20;73.20;;;;;;5054244;28;20446;-87
2023/11/05 04:24:16;;;;;;;1.10;0.80;;;19.20;73.20;;;;;;5054322;28;20436;-88
2023/11/05 04:26:43;;;;;;;1.00;0.63;;;19.20;73.30;;;;;;5054181;28;20435;-87
2023/11/05 04:29:10;;;;;;;2.23;0.80;;;19.20;73.20;;;;;;5053850;28;20436;-87
2023/11/05 04:31:37;;;;;;;1.03;0.70;;;19.20;73.20;;;;;;5053813;28;20487;-87
2023/11/05 04:34:04;;;;;;;1.20;0.83;;;19.20;73.20;;;;;;5054067;28;20447;-87
2023/11/05 04:36:31;;;;;;;1.00;0.70;;;19.20;74.10;;;;;;5053946;28;21021;-87
2023/11/05 04:38:58;;;;;;;1.00;0.80;;;19.20;73.20;;;;;;5053963;28;20523;-87
2023/11/05 04:41:26;;;;;;;1.10;0.80;;;19.20;73.20;;;;;;5054032;28;20553;-87
2023/11/05 04:43:53;;;;;;;1.10;0.70;;;19.20;73.20;;;;;;5053952;28;20434;-87
2023/11/05 04:46:20;;;;;;;1.10;0.80;;;19.20;74.00;;;;;;5053834;28;20480;-87
2023/11/05 04:48:47;;;;;;;1.00;0.60;;;19.20;73.20;;;;;;5053798;28;20522;-87
2023/11/05 04:51:13;;;;;;;1.10;0.80;;;19.20;73.20;;;;;;5053643;28;20462;-87
2023/11/05 04:53:40;;;;;;;1.10;0.70;;;19.20;73.20;;;;;;5053690;28;20998;-87
2023/11/05 04:56:08;;;;;;;1.10;0.90;;;19.20;73.20;;;;;;5053744;28;20535;-87
2023/11/05 04:58:36;;;;;;;0.90;0.60;;;19.20;74.10;;;;;;5053594;28;20531;-87
2023/11/05 05:01:04;;;;;;;1.33;0.70;;;19.20;73.20;;;;;;5053511;28;20440;-88
2023/11/05 05:03:31;;;;;;;1.30;0.60;;;19.20;73.30;;;;;;5053709;28;20470;-87
2023/11/05 05:05:58;;;;;;;1.23;0.83;;;19.20;73.30;;;;;;5053433;28;20445;-88
2023/11/05 05:08:25;;;;;;;1.20;0.77;;;19.20;73.20;;;;;;5053610;28;20449;-87
2023/11/05 05:10:53;;;;;;;1.10;0.73;;;19.20;73.20;;;;;;5053198;28;20504;-87
2023/11/05 05:13:20;;;;;;;0.93;0.60;;;19.20;73.30;;;;;;5053096;28;20495;-87
2023/11/05 05:15:48;;;;;;;0.93;0.60;;;19.20;73.30;;;;;;5053390;28;20515;-87
2023/11/05 05:18:15;;;;;;;1.10;0.70;;;19.20;73.30;;;;;;5053298;28;20779;-87
2023/11/05 05:20:42;;;;;;;1.10;0.70;;;19.10;73.20;;;;;;5053402;28;20531;-87
2023/11/05 05:23:08;;;;;;;1.00;0.60;;;19.20;73.30;;;;;;5053113;28;20444;-87
2023/11/05 05:25:36;;;;;;;0.97;0.70;;;19.20;73.30;;;;;;5053173;28;20549;-87
2023/11/05 05:28:03;;;;;;;1.00;0.70;;;19.20;73.30;;;;;;5053142;28;20449;-87
2023/11/05 05:30:30;;;;;;;1.00;0.60;;;19.20;73.30;;;;;;5052906;28;20465;-87
2023/11/05 05:32:58;;;;;;;2.30;0.70;;;19.10;73.20;;;;;;5053074;28;20572;-87
2023/11/05 05:35:25;;;;;;;1.10;0.83;;;19.10;73.20;;;;;;5053108;28;20867;-87
2023/11/05 05:37:52;;;;;;;1.00;0.60;;;19.10;73.20;;;;;;5052936;28;20497;-87
2023/11/05 05:40:19;;;;;;;1.00;0.60;;;19.10;74.10;;;;;;5052167;28;20488;-87
2023/11/05 05:42:46;;;;;;;1.40;0.77;;;19.10;73.20;;;;;;5052881;28;21007;-87
2023/11/05 05:45:13;;;;;;;1.20;0.93;;;19.10;73.20;;;;;;5053151;28;20447;-87
2023/11/05 05:47:42;;;;;;;0.90;0.60;;;19.10;73.30;;;;;;5053006;28;20434;-87
2023/11/05 05:50:11;;;;;;;1.00;0.70;;;19.10;73.30;;;;;;5052941;28;20440;-89
2023/11/05 05:52:37;;;;;;;0.93;0.60;;;19.10;73.30;;;;;;5052795;28;20480;-87
2023/11/05 05:55:08;;;;;;;1.13;0.60;;;19.10;73.30;;;;;;5052914;28;20469;-88
2023/11/05 05:57:36;;;;;;;1.30;0.80;;;19.10;73.30;;;;;;5052924;28;20527;-87
2023/11/05 06:00:03;;;;;;;1.00;0.60;;;19.10;73.30;;;;;;5052826;28;20450;-89
2023/11/05 06:02:30;;;;;;;1.00;0.60;;;19.10;73.30;;;;;;5053059;28;20478;-87
2023/11/05 06:04:57;;;;;;;1.00;0.77;;;19.10;73.30;;;;;;5052850;28;20440;-87
2023/11/05 06:07:31;;;;;;;0.90;0.60;;;19.10;73.30;;;;;;5052689;28;20914;-88
2023/11/05 06:09:57;;;;;;;1.50;0.70;;;19.10;73.30;;;;;;5052641;28;20449;-87
2023/11/05 06:12:24;;;;;;;1.20;0.70;;;19.10;73.30;;;;;;5052373;28;20682;-87
2023/11/05 06:14:51;;;;;;;1.00;0.70;;;19.10;73.30;;;;;;5052716;28;20931;-87
2023/11/05 06:17:19;;;;;;;1.00;0.60;;;19.10;74.10;;;;;;5052611;28;20526;-87
2023/11/05 06:19:45;;;;;;;1.00;0.70;;;19.10;73.30;;;;;;5052923;28;20448;-87
2023/11/05 06:22:12;;;;;;;1.00;0.60;;;19.10;73.30;;;;;;5052652;28;21018;-87
2023/11/05 06:24:41;;;;;;;0.90;0.53;;;19.10;73.30;;;;;;5052596;28;20527;-89
2023/11/05 06:27:08;;;;;;;1.00;0.63;;;19.10;73.30;;;;;;5052683;28;20441;-90
2023/11/05 06:29:35;;;;;;;1.00;0.60;;;19.10;73.30;;;;;;5052459;28;21051;-87
2023/11/05 06:32:02;;;;;;;1.00;0.67;;;19.10;73.30;;;;;;5052437;28;20472;-88
2023/11/05 06:34:29;;;;;;;1.60;0.67;;;19.10;73.30;;;;;;5052606;28;20536;-87
2023/11/05 06:36:56;;;;;;;1.10;0.60;;;19.10;73.30;;;;;;5052623;28;20512;-88
2023/11/05 06:39:23;;;;;;;1.20;0.70;;;19.20;73.30;;;;;;5052423;28;20531;-87
2023/11/05 06:41:51;;;;;;;0.90;0.50;;;19.10;73.30;;;;;;5052282;28;20855;-87
2023/11/05 06:44:18;;;;;;;1.10;0.70;;;19.10;73.30;;;;;;5052647;28;20791;-87
2023/11/05 06:46:45;;;;;;;1.00;0.70;;;19.10;73.30;;;;;;5052393;28;20442;-87
2023/11/05 06:49:12;;;;;;;1.10;0.67;;;19.10;73.30;;;;;;5052421;28;20436;-88
2023/11/05 06:51:39;;;;;;;1.10;0.67;;;19.10;73.30;;;;;;5053318;28;20441;-87
2023/11/05 06:54:06;;;;;;;0.90;0.60;;;19.10;73.30;;;;;;5055830;28;20582;-88
2023/11/05 06:56:34;;;;;;;0.90;0.60;;;19.10;73.40;;;;;;5055898;28;20446;-87
2023/11/05 06:59:02;;;;;;;1.00;0.60;;;19.10;73.30;;;;;;5055855;28;20444;-87
2023/11/05 07:01:29;;;;;;;1.10;0.63;;;19.10;73.30;;;;;;5055890;28;20440;-88
2023/11/05 07:03:57;;;;;;;1.00;0.70;;;19.10;73.40;;;;;;5055766;28;20939;-87
2023/11/05 07:06:23;;;;;;;1.07;0.80;;;19.10;73.30;;;;;;5055775;28;20448;-87
2023/11/05 07:08:50;;;;;;;1.30;0.70;;;19.10;73.30;;;;;;5055710;28;20534;-90
2023/11/05 07:11:17;;;;;;;0.90;0.60;;;19.10;73.30;;;;;;5055144;28;20455;-87
2023/11/05 07:13:44;;;;;;;0.97;0.63;;;19.10;73.30;;;;;;5055709;28;21081;-87
2023/11/05 07:16:12;;;;;;;1.27;0.70;;;19.10;73.40;;;;;;5055581;28;20449;-87
2023/11/05 07:18:41;;;;;;;1.10;0.60;;;19.10;73.40;;;;;;5055720;28;20448;-87
2023/11/05 07:21:11;;;;;;;0.90;0.60;;;19.10;73.40;;;;;;5055355;28;20455;-88
2023/11/05 07:23:38;;;;;;;1.10;0.70;;;19.10;73.40;;;;;;5055441;28;20484;-87
2023/11/05 07:26:05;;;;;;;0.90;0.60;;;19.10;73.40;;;;;;5055425;28;20523;-87
2023/11/05 07:28:32;;;;;;;1.07;0.70;;;19.10;73.40;;;;;;5055425;28;20872;-88
2023/11/05 07:30:59;;;;;;;1.10;0.80;;;19.10;73.30;;;;;;5055301;28;20523;-88
2023/11/05 07:33:27;;;;;;;0.90;0.60;;;19.10;73.30;;;;;;5055174;28;20492;-88
2023/11/05 07:35:54;;;;;;;0.90;0.60;;;19.10;73.30;;;;;;5055249;28;20432;-88
2023/11/05 07:38:22;;;;;;;0.90;0.60;;;19.10;73.40;;;;;;5055114;28;20475;-87
2023/11/05 07:40:49;;;;;;;0.90;0.60;;;19.10;73.40;;;;;;5055208;28;20454;-88
2023/11/05 07:43:17;;;;;;;1.00;0.70;;;19.10;73.40;;;;;;5055102;28;20866;-88
2023/11/05 07:45:44;;;;;;;0.90;0.60;;;19.10;73.40;;;;;;5055014;28;20534;-88
2023/11/05 07:48:11;;;;;;;1.10;0.70;;;19.10;73.40;;;;;;5055035;28;20524;-87
2023/11/05 07:50:39;;;;;;;1.00;0.70;;;19.10;73.40;;;;;;5054847;28;20437;-88
2023/11/05 07:53:06;;;;;;;1.00;0.60;;;19.10;73.40;;;;;;5054683;28;20488;-87
2023/11/05 07:55:33;;;;;;;1.17;0.60;;;19.10;73.40;;;;;;5054988;28;20523;-87
2023/11/05 07:57:59;;;;;;;1.00;0.70;;;19.20;73.50;;;;;;5054703;28;20531;-88
2023/11/05 08:00:26;;;;;;;0.90;0.60;;;19.20;73.50;;;;;;5054741;28;20534;-87
2023/11/05 08:02:53;;;;;;;1.10;0.70;;;19.20;73.40;;;;;;5053855;28;20956;-88
2023/11/05 08:05:20;;;;;;;1.73;0.87;;;19.20;73.40;;;;;;5054559;28;20524;-88
2023/11/05 08:07:49;;;;;;;1.20;0.70;;;19.20;73.40;;;;;;5054645;28;20444;-87
2023/11/05 08:10:17;;;;;;;0.90;0.60;;;19.20;73.40;;;;;;5054284;28;20482;-87
2023/11/05 08:12:44;;;;;;;1.80;0.70;;;19.20;73.40;;;;;;5054210;28;20484;-87
2023/11/05 08:15:11;;;;;;;1.10;0.70;;;19.20;73.40;;;;;;5054429;28;20818;-88
2023/11/05 08:17:38;;;;;;;1.00;0.70;;;19.20;73.40;;;;;;5054407;28;20555;-87
2023/11/05 08:20:05;;;;;;;0.90;0.60;;;19.20;73.40;;;;;;5054338;28;20515;-88
2023/11/05 08:22:33;;;;;;;1.00;0.70;;;19.20;73.40;;;;;;5054272;28;20463;-88
2023/11/05 08:25:01;;;;;;;1.00;0.60;;;19.20;73.40;;;;;;5054285;28;20454;-87
2023/11/05 08:27:28;;;;;;;1.00;0.70;;;19.20;73.40;;;;;;5054256;28;20997;-88
2023/11/05 08:29:54;;;;;;;0.90;0.60;;;19.20;73.40;;;;;;5054096;28;20540;-87
2023/11/05 08:32:22;;;;;;;1.10;0.63;;;19.20;74.20;;;;;;5054004;28;20528;-87
2023/11/05 08:34:48;;;;;;;1.00;0.70;;;19.20;73.40;;;;;;5054052;28;20441;-88
2023/11/05 08:37:15;;;;;;;1.00;0.70;;;19.20;73.30;;;;;;5053979;28;20471;-87
2023/11/05 08:39:42;;;;;;;1.00;0.60;;;19.20;73.30;;;;;;5053848;28;20530;-87
2023/11/05 08:42:11;;;;;;;0.90;0.60;;;19.20;73.40;;;;;;5053760;28;20544;-88
2023/11/05 08:44:39;;;;;;;1.10;0.70;;;19.20;73.30;;;;;;5053829;28;20459;-87
2023/11/05 08:47:06;;;;;;;1.30;0.63;;;19.30;73.60;;;;;;5053844;28;20439;-88
2023/11/05 08:49:35;;;;;;;1.63;0.73;;;19.30;73.30;;;;;;5053805;28;20432;-87
2023/11/05 08:52:04;;;;;;;0.93;0.60;;;19.40;73.30;;;;;;5053780;28;20436;-88
2023/11/05 08:54:33;;;;;;;0.90;0.50;;;19.40;73.20;;;;;;5053626;28;20492;-88
2023/11/05 08:56:59;;;;;;;1.00;0.70;;;19.40;73.20;;;;;;5053672;28;20441;-88
2023/11/05 08:59:28;;;;;;;0.90;0.60;;;19.40;73.20;;;;;;5053728;28;20534;-88
2023/11/05 09:01:55;;;;;;;0.90;0.60;;;19.40;73.20;;;;;;5053502;28;21015;-87
2023/11/05 09:04:21;;;;;;;1.47;0.70;;;19.40;74.00;;;;;;5053669;28;20471;-88
2023/11/05 09:06:48;;;;;;;1.00;0.60;;;19.40;73.20;;;;;;5053510;28;20524;-88
2023/11/05 09:09:16;;;;;;;1.00;0.67;;;19.40;73.30;;;;;;5053448;28;20479;-88
2023/11/05 09:11:43;;;;;;;1.00;0.70;;;19.40;73.30;;;;;;5053021;28;20596;-88
2023/11/05 09:14:10;;;;;;;1.00;0.60;;;19.40;73.30;;;;;;5053214;28;20494;-88
2023/11/05 09:16:38;;;;;;;1.10;0.60;;;19.30;73.10;;;;;;5053407;28;20448;-88
2023/11/05 09:19:05;;;;;;;1.10;0.60;;;19.40;74.20;;;;;;5053413;28;20436;-88
2023/11/05 09:21:32;;;;;;;0.90;0.60;;;19.40;73.30;;;;;;5053226;28;20448;-87
2023/11/05 09:24:00;;;;;;;1.00;0.60;;;19.40;73.30;;;;;;5053307;28;20444;-88
2023/11/05 09:26:26;;;;;;;1.87;0.80;;;19.40;74.20;;;;;;5053226;28;20928;-88
2023/11/05 09:28:53;;;;;;;0.97;0.60;;;19.50;73.20;;;;;;5053197;28;20444;-87
2023/11/05 09:31:21;;;;;;;1.30;0.60;;;19.40;73.10;;;;;;5053119;28;20467;-87
2023/11/05 09:33:49;;;;;;;1.20;1.07;;;19.50;73.20;;;;;;5053132;28;20496;-87
2023/11/05 09:36:16;;;;;;;1.00;0.70;;;19.50;73.10;;;;;;5053259;28;20470;-88
2023/11/05 09:38:43;;;;;;;1.00;0.60;;;19.50;73.10;;;;;;5053196;28;20471;-87
2023/11/05 09:41:09;;;;;;;0.90;0.60;;;19.50;73.20;;;;;;5052888;28;20467;-88
2023/11/05 09:43:37;;;;;;;1.10;0.70;;;19.50;73.20;;;;;;5053038;28;20522;-88
2023/11/05 09:46:04;;;;;;;0.90;0.60;;;19.50;73.10;;;;;;5053148;28;20526;-88
2023/11/05 09:48:32;;;;;;;0.90;0.60;;;19.50;73.10;;;;;;5052899;28;20923;-88
2023/11/05 09:51:01;;;;;;;0.90;0.60;;;19.50;73.00;;;;;;5052867;28;20938;-88
2023/11/05 09:53:29;;;;;;;1.00;0.60;;;19.50;73.10;;;;;;5053098;28;20821;-88
2023/11/05 09:55:56;;;;;;;0.90;0.60;;;19.50;73.10;;;;;;5052974;28;20443;-88
2023/11/05 09:58:23;;;;;;;0.97;0.70;;;19.50;73.30;;;;;;5053035;28;20524;-87
2023/11/05 10:00:51;;;;;;;1.00;0.60;;;19.60;73.10;;;;;;5052845;28;20440;-88
2023/11/05 10:03:18;;;;;;;1.30;0.60;;;19.70;72.80;;;;;;5053109;28;20490;-88
2023/11/05 10:05:47;;;;;;;1.00;0.67;;;19.80;73.50;;;;;;5052889;28;20455;-88
2023/11/05 10:08:15;;;;;;;0.90;0.60;;;19.80;72.60;;;;;;5052983;28;20448;-88
2023/11/05 10:10:44;;;;;;;1.00;0.70;;;19.80;72.70;;;;;;5052654;28;20463;-88
2023/11/05 10:13:12;;;;;;;0.90;0.60;;;19.90;72.60;;;;;;5052464;28;20543;-88
2023/11/05 10:15:40;;;;;;;1.10;0.60;;;19.90;72.60;;;;;;5052800;28;20457;-88
2023/11/05 10:18:12;;;;;;;1.20;0.70;;;20.00;72.50;;;;;;5052783;28;20468;-88
2023/11/05 10:20:50;;;;;;;1.00;0.60;;;20.00;72.50;;;;;;5052750;28;20438;-88
2023/11/05 10:23:18;;;;;;;1.00;0.60;;;20.00;72.50;;;;;;5052588;28;20455;-87
2023/11/05 10:25:47;;;;;;;1.30;0.80;;;19.90;72.60;;;;;;5052716;28;20519;-88
2023/11/05 10:28:14;;;;;;;0.90;0.70;;;19.90;72.80;;;;;;5056546;28;20539;-87
2023/11/05 10:30:45;;;;;;;0.97;0.60;;;19.80;72.80;;;;;;5056343;28;20798;-88
2023/11/05 10:33:12;;;;;;;0.90;0.60;;;19.80;73.00;;;;;;5056380;28;20539;-88
2023/11/05 10:35:40;;;;;;;1.07;0.67;;;19.70;73.10;;;;;;5056428;28;20437;-88
2023/11/05 10:38:08;;;;;;;1.00;0.70;;;19.70;73.30;;;;;;5056476;28;20485;-87
2023/11/05 10:40:37;;;;;;;1.00;0.70;;;19.60;73.40;;;;;;5055996;28;20465;-88
2023/11/05 10:43:06;;;;;;;1.20;0.70;;;19.60;73.60;;;;;;5056446;28;20444;-88
2023/11/05 10:45:34;;;;;;;1.00;0.60;;;19.50;73.60;;;;;;5056172;28;20449;-88
2023/11/05 10:48:03;;;;;;;1.00;0.70;;;19.50;73.70;;;;;;5056171;28;20959;-87
2023/11/05 10:50:31;;;;;;;0.93;0.63;;;19.50;73.80;;;;;;5055954;28;20450;-86
2023/11/05 10:53:00;;;;;;;1.23;0.80;;;19.50;73.80;;;;;;5056073;28;20451;-86
2023/11/05 10:55:32;;;;;;;1.00;0.70;;;19.50;74.60;;;;;;5055930;28;20833;-86
2023/11/05 10:58:02;;;;;;;1.00;0.70;;;19.50;73.80;;;;;;5055935;28;20444;-87
2023/11/05 11:00:52;;;;;;;1.00;0.70;;;19.50;73.80;;;;;;5056264;28;20429;-87
2023/11/05 11:03:21;;;;;;;1.40;0.63;;;19.50;73.70;;;;;;5055855;28;20438;-86
2023/11/05 11:06:08;;;;;;;0.93;0.60;;;19.50;73.80;;;;;;5055875;28;20440;-87
2023/11/05 11:08:36;;;;;;;0.90;0.63;;;19.50;74.60;;;;;;5049403;28;20484;-86
2023/11/05 11:11:14;;;;;;;1.00;0.70;;;19.50;73.90;;;;;;5055437;28;20464;-87
2023/11/05 11:14:00;;;;;;;2.07;0.70;;;19.50;73.80;;;;;;5055724;28;20479;-87
2023/11/05 11:16:32;;;;;;;0.90;0.60;;;19.50;73.90;;;;;;5055641;28;20444;-86
2023/11/05 11:19:05;;;;;;;0.90;0.60;;;19.50;73.90;;;;;;5055569;28;20527;-86
2023/11/05 11:21:33;;;;;;;1.00;0.63;;;19.50;73.80;;;;;;5055498;28;20815;-86
2023/11/05 11:24:06;;;;;;;0.90;0.70;;;19.50;73.80;;;;;;5055291;28;20451;-86
2023/11/05 11:26:38;;;;;;;0.90;0.60;;;19.50;73.90;;;;;;5055442;28;20488;-86
2023/11/05 11:29:07;;;;;;;0.90;0.70;;;19.50;73.90;;;;;;5055392;28;20531;-86
2023/11/05 11:31:35;;;;;;;1.00;0.60;;;19.50;74.00;;;;;;5055190;28;20440;-87
2023/11/05 11:34:02;;;;;;;1.20;0.70;;;19.50;73.90;;;;;;5055291;28;20476;-86
2023/11/05 11:36:29;;;;;;;0.93;0.60;;;19.50;73.90;;;;;;5055174;28;20443;-86
2023/11/05 11:38:55;;;;;;;0.93;0.60;;;19.50;74.00;;;;;;5054067;28;20447;-86
2023/11/05 11:41:22;;;;;;;0.90;0.57;;;19.50;74.00;;;;;;5055005;28;20460;-86
2023/11/05 11:43:49;;;;;;;0.90;0.60;;;19.50;74.10;;;;;;5055233;28;20864;-87
2023/11/05 11:46:25;;;;;;;0.97;0.70;;;19.50;74.00;;;;;;5055032;28;20527;-88
2023/11/05 11:48:52;;;;;;;1.00;0.70;;;19.50;74.00;;;;;;5055013;28;20971;-88
2023/11/05 11:51:19;;;;;;;1.00;0.70;;;19.50;74.00;;;;;;5054858;28;20863;-88
2023/11/05 11:53:46;;;;;;;1.00;0.70;;;19.50;74.00;;;;;;5055052;28;20470;-88
2023/11/05 11:56:13;;;;;;;1.00;0.60;;;19.50;74.20;;;;;;5054907;28;20440;-88
2023/11/05 11:58:42;;;;;;;1.00;0.70;;;19.50;74.10;;;;;;5054820;28;20441;-88
2023/11/05 12:01:11;;;;;;;1.37;0.70;;;19.50;74.20;;;;;;5054805;28;20464;-88
2023/11/05 12:03:39;;;;;;;1.10;0.70;;;19.50;74.20;;;;;;5054753;28;20928;-89
2023/11/05 12:06:07;;;;;;;0.90;0.60;;;19.50;74.10;;;;;;5054566;28;20434;-88
2023/11/05 12:08:38;;;;;;;1.00;0.60;;;19.50;74.10;;;;;;5054627;28;20544;-87
2023/11/05 12:11:10;;;;;;;0.97;0.70;;;19.50;74.00;;;;;;5054238;28;21091;-88
2023/11/05 12:13:39;;;;;;;0.90;0.63;;;19.50;74.10;;;;;;5054633;28;20855;-88
2023/11/05 12:16:08;;;;;;;0.90;0.60;;;19.50;74.00;;;;;;5054418;28;20930;-88
2023/11/05 12:18:35;;;;;;;1.83;0.73;;;19.50;73.90;;;;;;5054478;28;20453;-88
2023/11/05 12:21:07;;;;;;;1.00;0.67;;;19.50;73.90;;;;;;5054265;28;20528;-88
2023/11/05 12:23:36;;;;;;;1.00;0.60;;;19.50;73.90;;;;;;5054325;28;20936;-88
2023/11/05 12:26:04;;;;;;;1.17;0.93;;;19.50;73.90;;;;;;5054268;28;20433;-88
2023/11/05 12:28:32;;;;;;;1.00;0.70;;;19.50;73.90;;;;;;5054310;28;20487;-88
2023/11/05 12:31:01;;;;;;;1.00;0.60;;;19.50;73.90;;;;;;5054049;28;20434;-88
2023/11/05 12:33:27;;;;;;;0.90;0.60;;;19.50;73.90;;;;;;5054123;28;20523;-88
2023/11/05 12:35:56;;;;;;;1.03;0.70;;;19.50;73.90;;;;;;5053961;28;21021;-88
2023/11/05 12:38:25;;;;;;;1.10;0.60;;;19.50;73.90;;;;;;5054013;28;20528;-87
2023/11/05 12:40:52;;;;;;;1.00;0.70;;;19.50;73.90;;;;;;5053833;28;20456;-88
2023/11/05 12:43:21;;;;;;;1.00;0.70;;;19.50;73.90;;;;;;5053988;28;20523;-88
2023/11/05 12:45:48;;;;;;;0.90;0.60;;;19.50;74.20;;;;;;5053843;28;20842;-88
2023/11/05 12:48:15;;;;;;;1.00;0.70;;;19.50;73.90;;;;;;5053904;28;20472;-88
2023/11/05 12:50:42;;;;;;;1.03;0.80;;;19.50;73.90;;;;;;5053404;28;20536;-88